sensor_id;sensor_type;location;lat;lon;timestamp;pressure;altitude;pressure_sealevel;temperature;humidity
75972;BME280;64651;47.540;19.088;2023-06-04T00:03:08;100715.94;;;12.24;64.14
75972;BME280;64651;47.540;19.088;2023-06-04T00:08:10;100697.47;;;12.14;64.83
75972;BME280;64651;47.540;19.088;2023-06-04T00:13:12;100717.78;;;12.38;63.75
75972;BME280;64651;47.540;19.088;2023-06-04T00:18:15;100724.97;;;12.39;63.15
75972;BME280;64651;47.540;19.088;2023-06-04T00:23:17;100727.16;;;12.42;61.92
75972;BME280;64651;47.540;19.088;2023-06-04T00:28:19;100717.03;;;12.23;61.89
75972;BME280;64651;47.540;19.088;2023-06-04T00:33:22;100699.41;;;12.68;59.99
75972;BME280;64651;47.540;19.088;2023-06-04T00:38:25;100711.47;;;12.38;60.43
75972;BME280;64651;47.540;19.088;2023-06-04T00:43:27;100719.41;;;12.44;59.41
75972;BME280;64651;47.540;19.088;2023-06-04T00:48:29;100691.47;;;12.07;60.71
75972;BME280;64651;47.540;19.088;2023-06-04T00:53:32;100707.50;;;12.00;61.26
75972;BME280;64651;47.540;19.088;2023-06-04T00:58:38;100703.94;;;11.94;61.88
75972;BME280;64651;47.540;19.088;2023-06-04T01:03:43;100688.22;;;11.85;62.18
75972;BME280;64651;47.540;19.088;2023-06-04T01:08:51;100699.22;;;11.90;62.78
75972;BME280;64651;47.540;19.088;2023-06-04T01:13:56;100702.28;;;11.88;63.16
75972;BME280;64651;47.540;19.088;2023-06-04T01:19:01;100710.56;;;11.73;63.70
75972;BME280;64651;47.540;19.088;2023-06-04T01:24:05;100705.06;;;11.78;64.38
75972;BME280;64651;47.540;19.088;2023-06-04T01:29:10;100713.22;;;12.08;62.69
75972;BME280;64651;47.540;19.088;2023-06-04T01:34:12;100705.78;;;12.09;62.70
75972;BME280;64651;47.540;19.088;2023-06-04T01:39:14;100684.22;;;12.21;61.70
75972;BME280;64651;47.540;19.088;2023-06-04T01:44:16;100691.25;;;12.47;61.38
75972;BME280;64651;47.540;19.088;2023-06-04T01:49:21;100699.28;;;12.44;61.72
75972;BME280;64651;47.540;19.088;2023-06-04T01:54:24;100712.59;;;12.32;62.37
75972;BME280;64651;47.540;19.088;2023-06-04T01:59:26;100702.69;;;12.26;62.71
75972;BME280;64651;47.540;19.088;2023-06-04T02:04:29;100696.34;;;12.25;62.89
75972;BME280;64651;47.540;19.088;2023-06-04T02:09:31;100704.03;;;12.28;63.04
75972;BME280;64651;47.540;19.088;2023-06-04T02:14:33;100685.81;;;12.32;62.85
75972;BME280;64651;47.540;19.088;2023-06-04T02:19:36;100716.84;;;12.58;62.76
75972;BME280;64651;47.540;19.088;2023-06-04T02:24:39;100714.56;;;12.70;62.87
75972;BME280;64651;47.540;19.088;2023-06-04T02:29:44;100713.75;;;12.70;63.01
75972;BME280;64651;47.540;19.088;2023-06-04T02:34:46;100721.87;;;12.46;64.02
75972;BME280;64651;47.540;19.088;2023-06-04T02:39:48;100717.38;;;12.11;64.79
75972;BME280;64651;47.540;19.088;2023-06-04T02:44:51;100729.81;;;11.98;65.43
75972;BME280;64651;47.540;19.088;2023-06-04T02:49:54;100709.22;;;11.75;66.61
75972;BME280;64651;47.540;19.088;2023-06-04T02:54:56;100726.56;;;11.81;66.39
75972;BME280;64651;47.540;19.088;2023-06-04T02:59:59;100731.78;;;11.72;66.56
75972;BME280;64651;47.540;19.088;2023-06-04T03:05:02;100724.91;;;11.70;66.86
75972;BME280;64651;47.540;19.088;2023-06-04T03:10:04;100713.62;;;11.61;67.26
75972;BME280;64651;47.540;19.088;2023-06-04T03:15:07;100707.81;;;11.73;66.73
75972;BME280;64651;47.540;19.088;2023-06-04T03:20:10;100721.34;;;11.79;66.16
75972;BME280;64651;47.540;19.088;2023-06-04T03:25:12;100704.81;;;11.74;66.37
75972;BME280;64651;47.540;19.088;2023-06-04T03:30:15;100718.53;;;11.90;66.50
75972;BME280;64651;47.540;19.088;2023-06-04T03:35:17;100727.91;;;11.94;66.82
75972;BME280;64651;47.540;19.088;2023-06-04T03:40:19;100740.25;;;12.11;66.85
75972;BME280;64651;47.540;19.088;2023-06-04T03:45:22;100735.78;;;12.31;67.00
75972;BME280;64651;47.540;19.088;2023-06-04T03:50:24;100741.47;;;12.49;67.22
75972;BME280;64651;47.540;19.088;2023-06-04T03:55:27;100738.56;;;12.75;67.15
75972;BME280;64651;47.540;19.088;2023-06-04T04:00:29;100749.44;;;13.00;66.29
75972;BME280;64651;47.540;19.088;2023-06-04T04:05:31;100763.81;;;13.36;65.58
75972;BME280;64651;47.540;19.088;2023-06-04T04:10:34;100752.16;;;13.44;65.07
75972;BME280;64651;47.540;19.088;2023-06-04T04:15:36;100755.53;;;13.36;64.34
75972;BME280;64651;47.540;19.088;2023-06-04T04:20:38;100748.66;;;13.33;64.01
75972;BME280;64651;47.540;19.088;2023-06-04T04:25:40;100765.47;;;13.37;65.51
75972;BME280;64651;47.540;19.088;2023-06-04T04:30:43;100754.34;;;13.13;65.92
75972;BME280;64651;47.540;19.088;2023-06-04T04:35:46;100774.41;;;13.29;66.43
75972;BME280;64651;47.540;19.088;2023-06-04T04:40:50;100777.59;;;13.46;66.27
75972;BME280;64651;47.540;19.088;2023-06-04T04:45:54;100787.75;;;13.79;63.98
75972;BME280;64651;47.540;19.088;2023-06-04T04:50:57;100778.69;;;14.27;61.01
75972;BME280;64651;47.540;19.088;2023-06-04T04:55:59;100772.31;;;14.92;58.16
75972;BME280;64651;47.540;19.088;2023-06-04T05:01:01;100771.59;;;15.38;57.06
75972;BME280;64651;47.540;19.088;2023-06-04T05:06:03;100764.22;;;15.66;56.22
75972;BME280;64651;47.540;19.088;2023-06-04T05:11:06;100774.16;;;15.99;53.97
75972;BME280;64651;47.540;19.088;2023-06-04T05:16:08;100779.09;;;16.30;52.64
75972;BME280;64651;47.540;19.088;2023-06-04T05:21:13;100767.38;;;16.46;51.16
75972;BME280;64651;47.540;19.088;2023-06-04T05:26:15;100785.78;;;16.42;49.47
75972;BME280;64651;47.540;19.088;2023-06-04T05:31:18;100788.38;;;16.52;48.14
75972;BME280;64651;47.540;19.088;2023-06-04T05:36:20;100787.06;;;16.63;47.74
75972;BME280;64651;47.540;19.088;2023-06-04T05:41:28;100798.47;;;16.76;47.14
75972;BME280;64651;47.540;19.088;2023-06-04T05:46:31;100793.22;;;16.74;46.33
75972;BME280;64651;47.540;19.088;2023-06-04T05:51:33;100795.44;;;16.99;45.55
75972;BME280;64651;47.540;19.088;2023-06-04T05:56:35;100798.50;;;17.34;44.66
75972;BME280;64651;47.540;19.088;2023-06-04T06:01:38;100799.25;;;17.62;43.28
75972;BME280;64651;47.540;19.088;2023-06-04T06:06:40;100793.06;;;17.51;43.24
75972;BME280;64651;47.540;19.088;2023-06-04T06:11:45;100801.66;;;17.41;43.40
75972;BME280;64651;47.540;19.088;2023-06-04T06:16:48;100798.09;;;17.85;42.74
75972;BME280;64651;47.540;19.088;2023-06-04T06:21:50;100788.78;;;17.90;41.24
75972;BME280;64651;47.540;19.088;2023-06-04T06:26:52;100802.38;;;17.91;41.66
75972;BME280;64651;47.540;19.088;2023-06-04T06:31:54;100803.97;;;18.54;41.13
75972;BME280;64651;47.540;19.088;2023-06-04T06:36:57;100804.09;;;18.88;39.53
75972;BME280;64651;47.540;19.088;2023-06-04T06:41:59;100804.25;;;19.09;40.12
75972;BME280;64651;47.540;19.088;2023-06-04T06:47:01;100795.59;;;19.19;40.14
75972;BME280;64651;47.540;19.088;2023-06-04T06:52:04;100794.25;;;19.77;38.48
75972;BME280;64651;47.540;19.088;2023-06-04T06:57:06;100817.78;;;20.40;37.20
75972;BME280;64651;47.540;19.088;2023-06-04T07:02:11;100815.41;;;19.95;38.27
75972;BME280;64651;47.540;19.088;2023-06-04T07:07:13;100823.41;;;20.14;38.68
75972;BME280;64651;47.540;19.088;2023-06-04T07:12:18;100827.53;;;20.16;37.83
75972;BME280;64651;47.540;19.088;2023-06-04T07:17:20;100823.31;;;19.93;37.70
75972;BME280;64651;47.540;19.088;2023-06-04T07:22:23;100828.94;;;19.59;39.97
75972;BME280;64651;47.540;19.088;2023-06-04T07:27:25;100821.31;;;20.57;38.32
75972;BME280;64651;47.540;19.088;2023-06-04T07:32:28;100831.84;;;20.90;37.85
75972;BME280;64651;47.540;19.088;2023-06-04T07:37:30;100825.56;;;21.22;37.17
75972;BME280;64651;47.540;19.088;2023-06-04T07:42:33;100833.87;;;21.84;36.37
75972;BME280;64651;47.540;19.088;2023-06-04T07:47:36;100833.41;;;22.03;35.46
75972;BME280;64651;47.540;19.088;2023-06-04T07:52:38;100829.84;;;22.39;34.42
75972;BME280;64651;47.540;19.088;2023-06-04T07:57:41;100833.47;;;23.25;32.54
75972;BME280;64651;47.540;19.088;2023-06-04T08:02:43;100832.81;;;23.03;31.71
75972;BME280;64651;47.540;19.088;2023-06-04T08:07:46;100839.69;;;22.57;32.57
75972;BME280;64651;47.540;19.088;2023-06-04T08:12:49;100830.69;;;22.40;33.14
75972;BME280;64651;47.540;19.088;2023-06-04T08:17:51;100845.31;;;22.70;32.26
75972;BME280;64651;47.540;19.088;2023-06-04T08:22:57;100835.28;;;21.99;33.22
75972;BME280;64651;47.540;19.088;2023-06-04T08:27:59;100837.31;;;22.23;32.37
75972;BME280;64651;47.540;19.088;2023-06-04T08:33:01;100824.13;;;22.23;31.99
75972;BME280;64651;47.540;19.088;2023-06-04T08:38:04;100840.44;;;23.55;31.14
75972;BME280;64651;47.540;19.088;2023-06-04T08:43:06;100839.59;;;23.95;29.61
75972;BME280;64651;47.540;19.088;2023-06-04T08:48:10;100823.63;;;24.42;29.34
75972;BME280;64651;47.540;19.088;2023-06-04T08:53:15;100826.87;;;24.91;26.65
75972;BME280;64651;47.540;19.088;2023-06-04T08:58:18;100821.13;;;25.38;25.43
75972;BME280;64651;47.540;19.088;2023-06-04T09:03:21;100801.03;;;25.40;25.38
75972;BME280;64651;47.540;19.088;2023-06-04T09:08:24;100810.47;;;24.62;25.31
75972;BME280;64651;47.540;19.088;2023-06-04T09:13:28;100826.59;;;23.22;27.51
75972;BME280;64651;47.540;19.088;2023-06-04T09:18:33;100819.47;;;22.64;28.88
75972;BME280;64651;47.540;19.088;2023-06-04T09:23:43;100824.97;;;22.36;29.52
75972;BME280;64651;47.540;19.088;2023-06-04T09:28:46;100828.84;;;22.56;29.59
75972;BME280;64651;47.540;19.088;2023-06-04T09:33:49;100833.66;;;23.04;30.39
75972;BME280;64651;47.540;19.088;2023-06-04T09:38:52;100820.78;;;23.03;30.68
75972;BME280;64651;47.540;19.088;2023-06-04T09:44:01;100837.34;;;23.72;28.46
75972;BME280;64651;47.540;19.088;2023-06-04T09:49:08;100815.53;;;23.97;28.50
75972;BME280;64651;47.540;19.088;2023-06-04T09:54:10;100835.81;;;23.35;28.68
75972;BME280;64651;47.540;19.088;2023-06-04T09:59:13;100816.37;;;23.98;28.72
75972;BME280;64651;47.540;19.088;2023-06-04T10:04:16;100814.56;;;24.05;28.03
75972;BME280;64651;47.540;19.088;2023-06-04T10:09:20;100825.28;;;24.15;28.64
75972;BME280;64651;47.540;19.088;2023-06-04T10:14:29;100826.84;;;24.13;29.05
75972;BME280;64651;47.540;19.088;2023-06-04T10:19:38;100812.50;;;24.02;28.85
75972;BME280;64651;47.540;19.088;2023-06-04T10:24:40;100837.19;;;23.81;29.54
75972;BME280;64651;47.540;19.088;2023-06-04T10:29:43;100837.53;;;23.79;29.68
75972;BME280;64651;47.540;19.088;2023-06-04T10:34:46;100823.97;;;23.54;29.83
75972;BME280;64651;47.540;19.088;2023-06-04T10:39:54;100821.81;;;23.91;30.06
75972;BME280;64651;47.540;19.088;2023-06-04T10:44:56;100833.56;;;23.80;30.01
75972;BME280;64651;47.540;19.088;2023-06-04T10:50:13;100816.06;;;24.15;29.41
75972;BME280;64651;47.540;19.088;2023-06-04T10:55:15;100822.56;;;27.27;25.18
75972;BME280;64651;47.540;19.088;2023-06-04T11:00:18;100816.00;;;26.89;25.44
75972;BME280;64651;47.540;19.088;2023-06-04T11:05:20;100824.97;;;27.25;24.86
75972;BME280;64651;47.540;19.088;2023-06-04T11:10:31;100811.75;;;28.33;23.49
75972;BME280;64651;47.540;19.088;2023-06-04T11:15:45;100816.37;;;26.42;25.76
75972;BME280;64651;47.540;19.088;2023-06-04T11:20:59;100814.47;;;25.46;27.15
75972;BME280;64651;47.540;19.088;2023-06-04T11:26:02;100827.34;;;24.93;27.50
75972;BME280;64651;47.540;19.088;2023-06-04T11:31:04;100786.19;;;24.89;27.62
75972;BME280;64651;47.540;19.088;2023-06-04T11:36:24;100813.41;;;25.35;27.01
75972;BME280;64651;47.540;19.088;2023-06-04T11:41:29;100810.75;;;25.62;28.00
75972;BME280;64651;47.540;19.088;2023-06-04T11:46:33;100800.38;;;25.46;27.58
75972;BME280;64651;47.540;19.088;2023-06-04T11:51:35;100813.31;;;25.32;27.86
75972;BME280;64651;47.540;19.088;2023-06-04T11:56:38;100811.88;;;25.03;28.59
75972;BME280;64651;47.540;19.088;2023-06-04T12:01:44;100819.44;;;24.52;28.95
75972;BME280;64651;47.540;19.088;2023-06-04T12:06:51;100811.28;;;24.03;30.34
75972;BME280;64651;47.540;19.088;2023-06-04T12:12:02;100819.81;;;23.23;30.60
75972;BME280;64651;47.540;19.088;2023-06-04T12:17:08;100828.16;;;22.83;31.39
75972;BME280;64651;47.540;19.088;2023-06-04T12:22:11;100824.06;;;22.69;32.15
75972;BME280;64651;47.540;19.088;2023-06-04T12:27:13;100830.00;;;22.67;31.61
75972;BME280;64651;47.540;19.088;2023-06-04T12:32:16;100820.53;;;22.47;32.14
75972;BME280;64651;47.540;19.088;2023-06-04T12:37:24;100822.53;;;22.83;31.94
75972;BME280;64651;47.540;19.088;2023-06-04T12:42:27;100814.38;;;23.30;30.56
75972;BME280;64651;47.540;19.088;2023-06-04T12:47:31;100817.75;;;23.60;31.32
75972;BME280;64651;47.540;19.088;2023-06-04T12:52:33;100813.25;;;24.15;29.89
75972;BME280;64651;47.540;19.088;2023-06-04T12:57:35;100807.72;;;24.34;31.05
75972;BME280;64651;47.540;19.088;2023-06-04T13:02:38;100788.78;;;24.62;30.74
75972;BME280;64651;47.540;19.088;2023-06-04T13:07:40;100790.19;;;24.88;31.10
75972;BME280;64651;47.540;19.088;2023-06-04T13:12:42;100807.63;;;24.78;31.21
75972;BME280;64651;47.540;19.088;2023-06-04T13:17:45;100810.56;;;25.16;29.70
75972;BME280;64651;47.540;19.088;2023-06-04T13:22:47;100808.94;;;24.33;31.05
75972;BME280;64651;47.540;19.088;2023-06-04T13:27:49;100800.03;;;24.47;29.72
75972;BME280;64651;47.540;19.088;2023-06-04T13:32:53;100791.34;;;25.57;28.22
75972;BME280;64651;47.540;19.088;2023-06-04T13:37:55;100775.75;;;25.63;28.33
75972;BME280;64651;47.540;19.088;2023-06-04T13:42:57;100772.19;;;26.08;28.17
75972;BME280;64651;47.540;19.088;2023-06-04T13:48:00;100774.03;;;26.91;27.48
75972;BME280;64651;47.540;19.088;2023-06-04T13:53:12;100779.56;;;26.58;27.19
75972;BME280;64651;47.540;19.088;2023-06-04T13:58:15;100762.91;;;25.84;28.02
75972;BME280;64651;47.540;19.088;2023-06-04T14:03:17;100768.06;;;25.60;29.14
75972;BME280;64651;47.540;19.088;2023-06-04T14:08:20;100767.09;;;25.71;29.98
75972;BME280;64651;47.540;19.088;2023-06-04T14:13:22;100769.59;;;25.38;29.33
75972;BME280;64651;47.540;19.088;2023-06-04T14:18:24;100757.03;;;24.97;30.44
75972;BME280;64651;47.540;19.088;2023-06-04T14:23:26;100752.28;;;25.01;30.25
75972;BME280;64651;47.540;19.088;2023-06-04T14:28:29;100759.75;;;24.78;31.62
75972;BME280;64651;47.540;19.088;2023-06-04T14:33:31;100759.16;;;24.06;32.21
75972;BME280;64651;47.540;19.088;2023-06-04T14:38:34;100754.91;;;23.53;32.74
75972;BME280;64651;47.540;19.088;2023-06-04T14:43:36;100754.75;;;23.21;33.00
75972;BME280;64651;47.540;19.088;2023-06-04T14:48:38;100756.47;;;22.98;33.44
75972;BME280;64651;47.540;19.088;2023-06-04T14:53:41;100735.44;;;22.67;34.04
75972;BME280;64651;47.540;19.088;2023-06-04T14:58:43;100750.41;;;22.59;34.48
75972;BME280;64651;47.540;19.088;2023-06-04T15:03:45;100750.66;;;22.30;35.09
75972;BME280;64651;47.540;19.088;2023-06-04T15:08:47;100754.03;;;22.23;35.69
75972;BME280;64651;47.540;19.088;2023-06-04T15:13:50;100753.00;;;21.83;39.63
75972;BME280;64651;47.540;19.088;2023-06-04T15:18:52;100746.19;;;21.72;41.23
75972;BME280;64651;47.540;19.088;2023-06-04T15:23:54;100727.22;;;21.44;41.94
75972;BME280;64651;47.540;19.088;2023-06-04T15:28:57;100728.31;;;21.31;42.81
75972;BME280;64651;47.540;19.088;2023-06-04T15:33:59;100717.91;;;21.20;42.87
75972;BME280;64651;47.540;19.088;2023-06-04T15:39:01;100734.22;;;21.18;44.36
75972;BME280;64651;47.540;19.088;2023-06-04T15:44:04;100734.94;;;21.06;45.70
75972;BME280;64651;47.540;19.088;2023-06-04T15:49:06;100731.41;;;20.97;46.70
75972;BME280;64651;47.540;19.088;2023-06-04T15:54:11;100716.88;;;21.03;47.14
75972;BME280;64651;47.540;19.088;2023-06-04T15:59:16;100724.09;;;21.25;47.32
75972;BME280;64651;47.540;19.088;2023-06-04T16:04:22;100725.91;;;21.42;47.63
75972;BME280;64651;47.540;19.088;2023-06-04T16:09:24;100716.00;;;21.44;47.40
75972;BME280;64651;47.540;19.088;2023-06-04T16:14:26;100725.66;;;21.68;47.79
75972;BME280;64651;47.540;19.088;2023-06-04T16:19:28;100722.88;;;21.80;47.93
75972;BME280;64651;47.540;19.088;2023-06-04T16:24:31;100723.44;;;21.73;47.95
75972;BME280;64651;47.540;19.088;2023-06-04T16:29:33;100721.78;;;21.60;48.41
75972;BME280;64651;47.540;19.088;2023-06-04T16:34:35;100721.09;;;21.63;47.98
75972;BME280;64651;47.540;19.088;2023-06-04T16:39:37;100702.56;;;21.38;47.74
75972;BME280;64651;47.540;19.088;2023-06-04T16:44:40;100726.81;;;21.13;47.55
75972;BME280;64651;47.540;19.088;2023-06-04T16:49:42;100708.47;;;20.83;47.71
75972;BME280;64651;47.540;19.088;2023-06-04T16:54:44;100729.13;;;20.70;48.46
75972;BME280;64651;47.540;19.088;2023-06-04T16:59:48;100724.97;;;20.55;49.01
75972;BME280;64651;47.540;19.088;2023-06-04T17:04:50;100713.91;;;20.58;48.77
75972;BME280;64651;47.540;19.088;2023-06-04T17:09:52;100715.84;;;20.67;48.59
75972;BME280;64651;47.540;19.088;2023-06-04T17:14:55;100714.53;;;20.64;48.49
75972;BME280;64651;47.540;19.088;2023-06-04T17:19:57;100709.19;;;20.50;48.38
75972;BME280;64651;47.540;19.088;2023-06-04T17:25:00;100715.19;;;20.32;48.68
75972;BME280;64651;47.540;19.088;2023-06-04T17:30:03;100718.69;;;20.20;48.85
75972;BME280;64651;47.540;19.088;2023-06-04T17:35:05;100714.84;;;20.04;49.35
75972;BME280;64651;47.540;19.088;2023-06-04T17:40:08;100717.31;;;19.97;49.33
75972;BME280;64651;47.540;19.088;2023-06-04T17:45:11;100704.19;;;19.89;49.36
75972;BME280;64651;47.540;19.088;2023-06-04T17:50:13;100724.09;;;19.87;49.69
75972;BME280;64651;47.540;19.088;2023-06-04T17:55:15;100709.00;;;19.79;50.05
75972;BME280;64651;47.540;19.088;2023-06-04T18:00:18;100709.84;;;19.71;50.16
75972;BME280;64651;47.540;19.088;2023-06-04T18:05:20;100722.00;;;19.75;50.55
75972;BME280;64651;47.540;19.088;2023-06-04T18:10:25;100724.31;;;19.73;50.90
75972;BME280;64651;47.540;19.088;2023-06-04T18:15:27;100723.34;;;19.69;51.23
75972;BME280;64651;47.540;19.088;2023-06-04T18:20:31;100719.91;;;19.64;51.62
75972;BME280;64651;47.540;19.088;2023-06-04T18:25:33;100716.16;;;19.51;52.44
75972;BME280;64651;47.540;19.088;2023-06-04T18:30:35;100725.84;;;19.45;52.96
75972;BME280;64651;47.540;19.088;2023-06-04T18:35:38;100732.56;;;19.35;53.81
75972;BME280;64651;47.540;19.088;2023-06-04T18:40:40;100732.91;;;19.17;54.71
75972;BME280;64651;47.540;19.088;2023-06-04T18:45:42;100726.34;;;18.95;55.55
75972;BME280;64651;47.540;19.088;2023-06-04T18:50:45;100725.84;;;18.85;56.00
75972;BME280;64651;47.540;19.088;2023-06-04T18:55:47;100749.44;;;18.79;56.65
75972;BME280;64651;47.540;19.088;2023-06-04T19:00:51;100747.62;;;18.74;56.92
75972;BME280;64651;47.540;19.088;2023-06-04T19:05:54;100759.28;;;18.76;56.75
75972;BME280;64651;47.540;19.088;2023-06-04T19:10:57;100763.72;;;18.77;56.98
75972;BME280;64651;47.540;19.088;2023-06-04T19:16:00;100776.53;;;18.78;57.13
75972;BME280;64651;47.540;19.088;2023-06-04T19:21:02;100773.25;;;18.76;57.19
75972;BME280;64651;47.540;19.088;2023-06-04T19:26:05;100774.53;;;18.70;57.28
75972;BME280;64651;47.540;19.088;2023-06-04T19:31:08;100771.25;;;18.68;57.53
75972;BME280;64651;47.540;19.088;2023-06-04T19:36:12;100778.78;;;18.68;57.98
75972;BME280;64651;47.540;19.088;2023-06-04T19:41:30;100776.81;;;18.68;58.01
75972;BME280;64651;47.540;19.088;2023-06-04T19:46:32;100776.34;;;18.66;57.91
75972;BME280;64651;47.540;19.088;2023-06-04T19:51:35;100757.62;;;18.58;58.11
75972;BME280;64651;47.540;19.088;2023-06-04T19:56:40;100766.81;;;18.58;58.49
75972;BME280;64651;47.540;19.088;2023-06-04T20:01:44;100772.19;;;18.55;58.83
75972;BME280;64651;47.540;19.088;2023-06-04T20:06:47;100776.37;;;18.44;59.26
75972;BME280;64651;47.540;19.088;2023-06-04T20:11:49;100779.84;;;18.41;59.50
75972;BME280;64651;47.540;19.088;2023-06-04T20:16:51;100780.78;;;18.36;59.91
75972;BME280;64651;47.540;19.088;2023-06-04T20:21:54;100776.16;;;18.23;60.18
75972;BME280;64651;47.540;19.088;2023-06-04T20:26:56;100761.84;;;18.07;60.65
75972;BME280;64651;47.540;19.088;2023-06-04T20:31:59;100759.69;;;18.04;60.74
75972;BME280;64651;47.540;19.088;2023-06-04T20:37:01;100757.19;;;17.94;61.03
75972;BME280;64651;47.540;19.088;2023-06-04T20:42:05;100747.59;;;17.78;61.49
75972;BME280;64651;47.540;19.088;2023-06-04T20:47:08;100773.50;;;17.87;61.73
75972;BME280;64651;47.540;19.088;2023-06-04T20:52:10;100765.50;;;17.86;61.78
75972;BME280;64651;47.540;19.088;2023-06-04T20:57:12;100749.03;;;17.67;62.21
75972;BME280;64651;47.540;19.088;2023-06-04T21:02:14;100772.09;;;17.67;62.55
75972;BME280;64651;47.540;19.088;2023-06-04T21:07:17;100752.84;;;17.57;62.59
75972;BME280;64651;47.540;19.088;2023-06-04T21:12:19;100765.63;;;17.58;62.77
75972;BME280;64651;47.540;19.088;2023-06-04T21:17:22;100763.50;;;17.55;62.74
75972;BME280;64651;47.540;19.088;2023-06-04T21:22:24;100771.44;;;17.48;62.78
75972;BME280;64651;47.540;19.088;2023-06-04T21:27:26;100770.44;;;17.44;62.82
75972;BME280;64651;47.540;19.088;2023-06-04T21:32:28;100767.06;;;17.33;62.94
75972;BME280;64651;47.540;19.088;2023-06-04T21:37:31;100773.59;;;17.29;62.90
75972;BME280;64651;47.540;19.088;2023-06-04T21:42:33;100775.41;;;17.33;62.92
75972;BME280;64651;47.540;19.088;2023-06-04T21:47:37;100771.72;;;17.38;62.92
75972;BME280;64651;47.540;19.088;2023-06-04T21:52:40;100766.59;;;17.31;62.66
75972;BME280;64651;47.540;19.088;2023-06-04T21:57:42;100767.22;;;17.28;62.58
75972;BME280;64651;47.540;19.088;2023-06-04T22:02:44;100780.50;;;17.31;63.13
75972;BME280;64651;47.540;19.088;2023-06-04T22:07:47;100770.69;;;17.12;63.99
75972;BME280;64651;47.540;19.088;2023-06-04T22:12:49;100770.72;;;16.98;64.47
75972;BME280;64651;47.540;19.088;2023-06-04T22:17:51;100781.53;;;16.99;64.83
75972;BME280;64651;47.540;19.088;2023-06-04T22:22:53;100785.47;;;16.85;65.77
75972;BME280;64651;47.540;19.088;2023-06-04T22:27:56;100792.25;;;16.79;66.47
75972;BME280;64651;47.540;19.088;2023-06-04T22:32:58;100794.44;;;16.82;66.78
75972;BME280;64651;47.540;19.088;2023-06-04T22:38:00;100783.75;;;16.75;66.57
75972;BME280;64651;47.540;19.088;2023-06-04T22:43:02;100784.69;;;16.71;66.96
75972;BME280;64651;47.540;19.088;2023-06-04T22:48:05;100799.78;;;16.78;67.31
75972;BME280;64651;47.540;19.088;2023-06-04T22:53:07;100796.16;;;16.78;67.22
75972;BME280;64651;47.540;19.088;2023-06-04T22:58:10;100797.00;;;16.78;67.38
75972;BME280;64651;47.540;19.088;2023-06-04T23:03:12;100787.50;;;16.93;65.32
75972;BME280;64651;47.540;19.088;2023-06-04T23:08:16;100782.91;;;16.75;66.70
75972;BME280;64651;47.540;19.088;2023-06-04T23:13:18;100780.03;;;16.52;68.00
75972;BME280;64651;47.540;19.088;2023-06-04T23:18:20;100788.78;;;16.46;68.84
75972;BME280;64651;47.540;19.088;2023-06-04T23:23:22;100782.28;;;16.23;69.60
75972;BME280;64651;47.540;19.088;2023-06-04T23:28:25;100783.50;;;16.17;70.44
75972;BME280;64651;47.540;19.088;2023-06-04T23:33:27;100781.16;;;16.10;70.71
75972;BME280;64651;47.540;19.088;2023-06-04T23:38:29;100784.84;;;16.06;70.98
75972;BME280;64651;47.540;19.088;2023-06-04T23:43:31;100778.28;;;16.02;71.29
75972;BME280;64651;47.540;19.088;2023-06-04T23:48:34;100783.09;;;15.96;71.37
75972;BME280;64651;47.540;19.088;2023-06-04T23:53:36;100775.69;;;15.92;72.25
75972;BME280;64651;47.540;19.088;2023-06-04T23:58:38;100776.19;;;15.94;71.91
